Time;durP1;ratioP1;P1;durP2;ratioP2;P2;SDS_P1;SDS_P2;PMS_P1;PMS_P2;Temp;Humidity;BMP_temperature;BMP_pressure;BME280_temperature;BME280_humidity;BME280_pressure;Samples;Min_cycle;Max_cycle;Signal;HPM_P1;HPM_P2
2024/02/17 00:02:22;;;;;;;2.90;2.70;;;16.60;1.00;;;;;;2611290;54;20470;-60
2024/02/17 00:04:48;;;;;;;3.53;3.33;;;16.60;1.00;;;;;;2611727;54;20450;-60
2024/02/17 00:07:14;;;;;;;2.90;2.63;;;16.70;1.00;;;;;;2612525;47;20412;-60
2024/02/17 00:09:40;;;;;;;3.10;2.87;;;16.70;1.00;;;;;;2612776;54;20392;-61
2024/02/17 00:12:07;;;;;;;3.30;3.00;;;16.60;1.00;;;;;;2613641;39;20562;-61
2024/02/17 00:14:34;;;;;;;2.90;2.70;;;16.60;1.00;;;;;;2613113;54;20411;-65
2024/02/17 00:17:03;;;;;;;6.00;3.40;;;16.60;1.00;;;;;;2612590;54;20488;-65
2024/02/17 00:19:29;;;;;;;3.03;2.83;;;16.60;1.00;;;;;;2611665;54;20424;-66
2024/02/17 00:21:55;;;;;;;3.30;3.00;;;16.60;1.00;;;;;;2612980;47;20432;-65
2024/02/17 00:24:20;;;;;;;2.93;2.73;;;16.60;1.00;;;;;;2611932;54;20422;-65
2024/02/17 00:26:46;;;;;;;3.30;3.10;;;16.60;1.00;;;;;;2612957;54;20178;-65
2024/02/17 00:29:12;;;;;;;3.00;2.80;;;16.60;1.00;;;;;;2612830;54;20808;-65
2024/02/17 00:31:37;;;;;;;3.47;3.17;;;16.60;1.00;;;;;;2612617;54;20463;-66
2024/02/17 00:34:04;;;;;;;2.63;2.30;;;16.60;1.00;;;;;;2613542;54;20163;-59
2024/02/17 00:36:29;;;;;;;3.30;3.00;;;16.60;1.00;;;;;;2611934;54;20171;-60
2024/02/17 00:38:55;;;;;;;3.90;3.00;;;16.60;1.00;;;;;;2612508;54;20418;-59
2024/02/17 00:41:21;;;;;;;3.23;3.00;;;16.60;1.00;;;;;;2611668;47;20163;-59
2024/02/17 00:43:47;;;;;;;3.20;3.00;;;16.60;1.00;;;;;;2612798;54;20189;-59
2024/02/17 00:46:12;;;;;;;3.30;2.57;;;16.60;1.00;;;;;;2613050;54;20159;-59
2024/02/17 00:48:38;;;;;;;2.43;2.27;;;16.60;1.00;;;;;;2612296;47;20294;-60
2024/02/17 00:51:04;;;;;;;3.37;3.10;;;16.60;1.00;;;;;;2611585;54;20195;-59
2024/02/17 00:53:29;;;;;;;3.37;3.07;;;16.60;1.00;;;;;;2612809;54;20235;-59
2024/02/17 00:55:55;;;;;;;3.83;3.00;;;16.60;1.00;;;;;;2612000;54;20198;-59
2024/02/17 00:58:20;;;;;;;3.20;3.00;;;16.60;1.00;;;;;;2613387;31;20647;-60
2024/02/17 01:00:46;;;;;;;2.70;2.50;;;16.60;1.00;;;;;;2611241;54;20184;-60
2024/02/17 01:03:12;;;;;;;4.40;3.73;;;16.60;1.00;;;;;;2612575;54;20162;-58
2024/02/17 01:05:38;;;;;;;3.03;2.73;;;16.60;1.00;;;;;;2613250;54;20182;-73
2024/02/17 01:08:09;;;;;;;3.10;2.90;;;16.60;1.00;;;;;;2612614;54;20404;-73
2024/02/17 01:10:35;;;;;;;3.70;3.40;;;16.60;1.00;;;;;;2610844;54;20562;-73
2024/02/17 01:13:01;;;;;;;4.30;3.87;;;16.60;1.00;;;;;;2612649;39;20799;-74
2024/02/17 01:15:27;;;;;;;3.30;3.00;;;16.60;1.00;;;;;;2614166;39;20462;-74
2024/02/17 01:17:52;;;;;;;3.27;3.07;;;16.60;1.00;;;;;;2613755;54;20446;-74
2024/02/17 01:20:18;;;;;;;3.27;2.97;;;16.60;1.00;;;;;;2613372;54;20266;-74
2024/02/17 01:22:44;;;;;;;3.77;2.93;;;16.60;1.00;;;;;;2614136;39;20697;-73
2024/02/17 01:25:09;;;;;;;4.50;3.50;;;16.60;1.00;;;;;;2613386;47;20289;-61
2024/02/17 01:27:35;;;;;;;3.77;3.47;;;16.60;1.00;;;;;;2613655;54;20159;-61
2024/02/17 01:30:01;;;;;;;3.40;3.10;;;16.60;1.00;;;;;;2612899;54;20163;-61
2024/02/17 01:32:26;;;;;;;3.73;3.00;;;16.60;1.00;;;;;;2613455;47;20187;-61
2024/02/17 01:34:52;;;;;;;4.10;3.30;;;16.70;1.00;;;;;;2613073;54;20158;-61
2024/02/17 01:37:18;;;;;;;3.77;3.47;;;16.60;1.00;;;;;;2613630;47;20208;-62
2024/02/17 01:39:44;;;;;;;4.20;3.60;;;16.60;1.00;;;;;;2612297;47;20178;-62
2024/02/17 01:42:10;;;;;;;3.17;2.83;;;16.60;1.00;;;;;;2613454;54;20986;-61
2024/02/17 01:44:37;;;;;;;3.20;2.90;;;16.60;1.00;;;;;;2614094;54;20410;-74
2024/02/17 01:47:03;;;;;;;3.50;3.20;;;16.60;1.00;;;;;;2614078;47;20389;-75
2024/02/17 01:49:30;;;;;;;5.50;3.33;;;16.60;1.00;;;;;;2613696;54;20421;-74
2024/02/17 01:51:58;;;;;;;3.50;3.20;;;16.60;1.00;;;;;;2613449;54;20428;-74
2024/02/17 01:54:25;;;;;;;3.63;3.33;;;16.60;1.00;;;;;;2612736;54;20482;-73
2024/02/17 01:56:50;;;;;;;3.33;3.03;;;16.60;1.00;;;;;;2613728;54;20387;-74
2024/02/17 01:59:17;;;;;;;3.50;3.20;;;16.60;1.00;;;;;;2613134;54;20458;-73
2024/02/17 02:01:46;;;;;;;3.37;3.10;;;16.60;1.00;;;;;;2613739;54;20255;-74
2024/02/17 02:04:11;;;;;;;3.13;2.87;;;16.60;1.00;;;;;;2613202;39;20916;-73
2024/02/17 02:06:40;;;;;;;3.20;2.97;;;16.60;1.00;;;;;;2613786;54;20455;-73
2024/02/17 02:09:06;;;;;;;3.80;3.17;;;16.60;1.00;;;;;;2614162;39;20689;-73
2024/02/17 02:11:32;;;;;;;4.10;3.73;;;16.60;1.00;;;;;;2613701;47;20511;-73
2024/02/17 02:14:14;;;;;;;2.87;2.60;;;16.60;1.00;;;;;;2614493;39;20782;-63
2024/02/17 02:16:40;;;;;;;3.50;3.20;;;16.60;1.00;;;;;;2613312;54;20388;-64
2024/02/17 02:19:06;;;;;;;3.77;3.47;;;16.60;1.00;;;;;;2612198;54;20530;-63
2024/02/17 02:21:31;;;;;;;3.37;3.17;;;16.60;1.00;;;;;;2613569;46;20414;-63
2024/02/17 02:23:57;;;;;;;4.30;3.07;;;16.60;1.00;;;;;;2613017;54;20250;-63
2024/02/17 02:26:25;;;;;;;3.00;2.70;;;16.60;1.00;;;;;;2614094;31;20686;-64
2024/02/17 02:28:51;;;;;;;3.47;3.17;;;16.60;1.00;;;;;;2612397;54;20713;-63
2024/02/17 02:31:17;;;;;;;3.37;3.07;;;16.60;1.00;;;;;;2612226;47;20424;-63
2024/02/17 02:33:43;;;;;;;2.97;2.70;;;16.60;1.00;;;;;;2611960;47;20166;-65
2024/02/17 02:36:08;;;;;;;3.97;3.60;;;16.60;1.00;;;;;;2613346;54;20150;-64
2024/02/17 02:38:34;;;;;;;3.03;2.83;;;16.60;1.00;;;;;;2612661;54;20431;-66
2024/02/17 02:41:00;;;;;;;4.63;2.80;;;16.60;1.00;;;;;;2613292;54;20156;-64
2024/02/17 02:43:26;;;;;;;2.97;2.70;;;16.60;1.00;;;;;;2613203;54;20183;-64
2024/02/17 02:45:51;;;;;;;3.20;2.90;;;16.60;1.00;;;;;;2613101;54;20212;-66
2024/02/17 02:48:17;;;;;;;3.80;3.50;;;16.60;1.00;;;;;;2612307;54;20431;-65
2024/02/17 02:50:43;;;;;;;3.27;2.97;;;16.60;1.00;;;;;;2612484;54;20171;-66
2024/02/17 02:53:09;;;;;;;3.10;2.80;;;16.60;1.00;;;;;;2612937;54;20167;-65
2024/02/17 02:55:35;;;;;;;3.37;3.10;;;16.60;1.00;;;;;;2614005;54;20170;-74
2024/02/17 02:58:00;;;;;;;3.23;3.00;;;16.60;1.00;;;;;;2613169;54;20510;-73
2024/02/17 03:00:26;;;;;;;3.57;3.27;;;16.60;1.00;;;;;;2613038;54;20162;-73
2024/02/17 03:02:52;;;;;;;3.17;2.93;;;16.60;1.00;;;;;;2612866;39;20566;-74
2024/02/17 03:05:17;;;;;;;2.97;2.77;;;16.60;1.00;;;;;;2612665;54;20165;-73
2024/02/17 03:07:44;;;;;;;3.37;3.13;;;16.60;1.00;;;;;;2613645;54;20147;-74
2024/02/17 03:10:09;;;;;;;2.43;2.23;;;16.60;1.00;;;;;;2613667;47;20172;-73
2024/02/17 03:12:36;;;;;;;3.03;2.73;;;16.60;1.00;;;;;;2612974;54;20411;-74
2024/02/17 03:15:02;;;;;;;3.23;2.93;;;16.60;1.00;;;;;;2613991;54;20547;-74
2024/02/17 03:17:28;;;;;;;3.50;3.23;;;16.60;1.00;;;;;;2612833;54;20442;-74
2024/02/17 03:19:54;;;;;;;3.23;3.00;;;16.60;1.00;;;;;;2613753;54;20499;-74
2024/02/17 03:22:20;;;;;;;4.03;3.47;;;16.60;1.00;;;;;;2614105;54;20498;-74
2024/02/17 03:24:46;;;;;;;4.67;3.33;;;16.60;1.00;;;;;;2612445;54;20181;-65
2024/02/17 03:27:13;;;;;;;3.50;3.20;;;16.60;1.00;;;;;;2612130;54;20997;-65
2024/02/17 03:29:38;;;;;;;3.30;2.83;;;16.60;1.00;;;;;;2612465;54;20384;-66
2024/02/17 03:32:05;;;;;;;3.57;3.10;;;16.60;1.00;;;;;;2613317;54;20396;-66
2024/02/17 03:34:31;;;;;;;3.10;2.73;;;16.60;1.00;;;;;;2613071;54;20595;-66
2024/02/17 03:36:57;;;;;;;3.13;2.60;;;16.60;1.00;;;;;;2612617;54;20970;-65
2024/02/17 03:39:23;;;;;;;3.40;3.10;;;16.60;1.00;;;;;;2613235;54;20420;-64
2024/02/17 03:41:49;;;;;;;3.43;3.13;;;16.60;1.00;;;;;;2612806;54;20464;-66
2024/02/17 03:44:16;;;;;;;3.70;3.40;;;16.60;1.00;;;;;;2612432;54;20262;-59
2024/02/17 03:46:41;;;;;;;3.10;2.90;;;16.60;1.00;;;;;;2613006;47;20439;-58
2024/02/17 03:49:07;;;;;;;3.00;2.80;;;16.60;1.00;;;;;;2612843;54;20454;-59
2024/02/17 03:51:33;;;;;;;3.03;2.53;;;16.60;1.00;;;;;;2612754;54;20361;-59
2024/02/17 03:53:59;;;;;;;3.20;2.90;;;16.60;1.00;;;;;;2612421;54;20540;-59
2024/02/17 03:56:25;;;;;;;3.80;3.50;;;16.60;1.00;;;;;;2613590;39;20581;-59
2024/02/17 03:58:50;;;;;;;3.57;3.10;;;16.60;1.00;;;;;;2612737;54;21074;-59
2024/02/17 04:01:16;;;;;;;3.10;2.90;;;16.60;1.00;;;;;;2612457;54;20420;-59
2024/02/17 04:03:42;;;;;;;3.23;2.93;;;16.60;1.00;;;;;;2612441;54;20178;-59
2024/02/17 04:06:08;;;;;;;3.83;3.10;;;16.60;1.00;;;;;;2613010;39;20393;-60
2024/02/17 04:08:33;;;;;;;3.17;2.87;;;16.60;1.00;;;;;;2612691;54;20158;-59
2024/02/17 04:11:00;;;;;;;2.77;2.57;;;16.60;1.00;;;;;;2612481;54;20155;-60
2024/02/17 04:13:27;;;;;;;3.97;3.00;;;16.60;1.00;;;;;;2612895;54;20439;-59
2024/02/17 04:15:52;;;;;;;3.60;3.30;;;16.60;1.00;;;;;;2611944;54;20419;-58
2024/02/17 04:18:18;;;;;;;3.10;2.90;;;16.60;1.00;;;;;;2612529;54;20469;-59
2024/02/17 04:20:44;;;;;;;2.67;2.47;;;16.60;1.00;;;;;;2612874;54;20201;-60
2024/02/17 04:23:10;;;;;;;3.30;3.00;;;16.60;1.00;;;;;;2612098;47;20253;-59
2024/02/17 04:25:36;;;;;;;2.87;2.67;;;16.60;1.00;;;;;;2613055;54;20871;-59
2024/02/17 04:28:03;;;;;;;3.87;3.00;;;16.60;1.00;;;;;;2612280;54;20454;-59
2024/02/17 04:30:30;;;;;;;2.83;2.63;;;16.60;1.00;;;;;;2612248;47;20692;-60
2024/02/17 04:32:55;;;;;;;3.33;3.03;;;16.60;1.00;;;;;;2612681;54;20434;-59
2024/02/17 04:35:21;;;;;;;3.23;2.93;;;16.60;1.00;;;;;;2613351;47;20435;-74
2024/02/17 04:37:47;;;;;;;2.97;2.77;;;16.60;1.00;;;;;;2613479;54;20720;-74
2024/02/17 04:40:13;;;;;;;2.77;2.57;;;16.60;1.00;;;;;;2613083;54;20174;-74
2024/02/17 04:42:39;;;;;;;2.90;2.63;;;16.60;1.00;;;;;;2612854;47;20171;-74
2024/02/17 04:45:06;;;;;;;3.57;3.20;;;16.60;1.00;;;;;;2613637;54;20584;-73
2024/02/17 04:47:31;;;;;;;2.93;2.70;;;16.60;1.00;;;;;;2613977;54;21445;-74
2024/02/17 04:49:57;;;;;;;2.90;2.70;;;16.60;1.00;;;;;;2613807;39;20753;-74
2024/02/17 04:52:23;;;;;;;4.73;2.70;;;16.60;1.00;;;;;;2614047;47;20168;-73
2024/02/17 04:54:48;;;;;;;3.30;3.00;;;16.60;1.00;;;;;;2613932;54;20143;-74
2024/02/17 04:57:14;;;;;;;3.70;3.03;;;16.60;1.00;;;;;;2614239;54;20169;-74
2024/02/17 04:59:40;;;;;;;3.93;3.37;;;16.60;1.00;;;;;;2614624;39;20556;-74
2024/02/17 05:02:05;;;;;;;3.53;3.23;;;16.60;1.00;;;;;;2613541;54;20201;-73
2024/02/17 05:04:31;;;;;;;4.30;3.00;;;16.60;1.00;;;;;;2613689;54;20175;-73
2024/02/17 05:06:57;;;;;;;5.40;3.27;;;16.60;1.00;;;;;;2614229;31;20645;-73
2024/02/17 05:09:22;;;;;;;2.60;2.40;;;16.60;1.00;;;;;;2613434;54;20146;-74
2024/02/17 05:11:48;;;;;;;2.60;2.40;;;16.60;1.00;;;;;;2614116;54;20166;-73
2024/02/17 05:14:17;;;;;;;2.40;2.20;;;16.60;1.00;;;;;;2613619;54;20645;-64
2024/02/17 05:16:46;;;;;;;2.80;2.60;;;16.60;1.00;;;;;;2613420;47;20270;-64
2024/02/17 05:19:13;;;;;;;3.07;2.77;;;16.60;1.00;;;;;;2613761;54;20429;-64
2024/02/17 05:21:41;;;;;;;2.77;2.57;;;16.60;1.00;;;;;;2613575;54;20416;-64
2024/02/17 05:24:09;;;;;;;2.70;2.50;;;16.60;1.00;;;;;;2612284;54;20416;-64
2024/02/17 05:26:36;;;;;;;2.83;2.63;;;16.60;1.00;;;;;;2613524;54;20401;-63
2024/02/17 05:29:06;;;;;;;2.87;2.67;;;16.60;1.00;;;;;;2612740;54;20384;-62
2024/02/17 05:31:33;;;;;;;3.83;2.83;;;16.60;1.00;;;;;;2613262;54;20403;-63
2024/02/17 05:33:59;;;;;;;3.60;3.30;;;16.60;1.00;;;;;;2613619;54;20401;-64
2024/02/17 05:36:26;;;;;;;2.90;2.60;;;16.60;1.00;;;;;;2613409;47;20441;-63
2024/02/17 05:38:52;;;;;;;3.30;3.00;;;16.60;1.00;;;;;;2613511;54;20531;-63
2024/02/17 05:41:17;;;;;;;3.00;2.80;;;16.60;1.00;;;;;;2613312;47;20429;-64
2024/02/17 05:43:43;;;;;;;2.97;2.73;;;16.60;1.00;;;;;;2613649;54;20166;-64
2024/02/17 05:46:09;;;;;;;3.70;2.80;;;16.60;1.00;;;;;;2613286;54;20181;-64
2024/02/17 05:48:35;;;;;;;2.93;2.73;;;16.60;1.00;;;;;;2613447;54;20269;-64
2024/02/17 05:51:00;;;;;;;3.73;2.63;;;16.60;1.00;;;;;;2613033;54;20547;-63
2024/02/17 05:53:26;;;;;;;2.70;2.50;;;16.60;1.00;;;;;;2612947;54;20169;-64
2024/02/17 05:55:52;;;;;;;4.70;2.70;;;16.60;1.00;;;;;;2613414;54;20140;-63
2024/02/17 05:58:17;;;;;;;3.00;2.70;;;16.60;1.00;;;;;;2613252;54;20198;-63
2024/02/17 06:00:43;;;;;;;2.50;2.30;;;16.60;1.00;;;;;;2612008;54;20163;-63
2024/02/17 06:03:09;;;;;;;2.77;2.57;;;16.60;1.00;;;;;;2612310;54;20225;-63
2024/02/17 06:05:34;;;;;;;2.50;2.30;;;16.60;1.00;;;;;;2612316;46;20262;-63
2024/02/17 06:08:00;;;;;;;2.53;2.33;;;16.60;1.00;;;;;;2613531;54;20156;-64
2024/02/17 06:10:25;;;;;;;2.70;2.50;;;16.60;1.00;;;;;;2613141;54;20153;-63
2024/02/17 06:12:52;;;;;;;2.53;2.33;;;16.60;1.00;;;;;;2613472;39;20556;-64
2024/02/17 06:15:18;;;;;;;2.37;2.17;;;16.60;1.00;;;;;;2613494;54;20197;-63
2024/02/17 06:17:46;;;;;;;2.53;2.33;;;16.60;1.00;;;;;;2612571;54;20428;-64
2024/02/17 06:22:57;;;;;;;2.50;2.30;;;16.60;1.00;;;;;;2613345;54;20455;-63
2024/02/17 06:25:23;;;;;;;2.80;2.50;;;16.60;1.00;;;;;;2612161;54;20399;-58
2024/02/17 06:27:49;;;;;;;2.63;2.33;;;16.60;1.00;;;;;;2612952;54;20430;-59
2024/02/17 06:30:15;;;;;;;2.67;2.17;;;16.60;1.00;;;;;;2613047;54;20387;-59
2024/02/17 06:32:41;;;;;;;2.37;2.17;;;16.60;1.00;;;;;;2613586;54;20404;-59
2024/02/17 06:35:07;;;;;;;2.70;2.50;;;16.60;1.00;;;;;;2613122;39;20816;-59
2024/02/17 06:37:36;;;;;;;2.83;2.63;;;16.60;1.00;;;;;;2613260;54;20434;-59
2024/02/17 06:40:02;;;;;;;2.63;2.43;;;16.60;1.00;;;;;;2613290;54;20153;-60
2024/02/17 06:42:27;;;;;;;3.43;2.67;;;16.60;1.00;;;;;;2612990;31;20864;-60
2024/02/17 06:44:53;;;;;;;3.03;2.60;;;16.60;1.00;;;;;;2613144;54;20727;-59
2024/02/17 06:47:19;;;;;;;2.80;2.60;;;16.60;1.00;;;;;;2612796;54;20197;-60
2024/02/17 06:49:45;;;;;;;2.47;2.27;;;16.60;1.00;;;;;;2613131;54;20155;-58
2024/02/17 06:52:11;;;;;;;2.97;2.47;;;16.60;1.00;;;;;;2613132;54;20430;-59
2024/02/17 06:54:37;;;;;;;2.83;2.50;;;16.60;1.00;;;;;;2612555;54;20949;-61
2024/02/17 06:57:04;;;;;;;2.63;2.13;;;16.60;1.00;;;;;;2613325;39;20569;-61
2024/02/17 06:59:29;;;;;;;2.67;2.47;;;16.60;1.00;;;;;;2611611;54;20163;-61
2024/02/17 07:01:56;;;;;;;3.00;2.40;;;16.60;1.00;;;;;;2612767;39;20815;-61
2024/02/17 07:04:21;;;;;;;3.17;2.87;;;16.60;1.00;;;;;;2613031;54;20180;-60
2024/02/17 07:06:47;;;;;;;2.87;2.57;;;16.60;1.00;;;;;;2612819;54;20428;-61
2024/02/17 07:09:18;;;;;;;6.90;3.00;;;16.60;1.00;;;;;;2612109;47;20186;-60
2024/02/17 07:11:44;;;;;;;2.93;2.47;;;16.70;1.00;;;;;;2612740;47;20182;-60
2024/02/17 07:14:12;;;;;;;3.83;2.83;;;16.60;1.00;;;;;;2613327;54;20401;-66
2024/02/17 07:16:38;;;;;;;2.73;2.50;;;16.60;1.00;;;;;;2613119;54;20391;-60
2024/02/17 07:19:03;;;;;;;2.73;2.43;;;16.60;1.00;;;;;;2612040;54;21047;-59
2024/02/17 07:21:30;;;;;;;2.50;2.30;;;16.60;1.00;;;;;;2612085;54;20180;-59
2024/02/17 07:23:55;;;;;;;3.13;2.83;;;16.70;1.00;;;;;;2613331;54;20142;-59
2024/02/17 07:26:21;;;;;;;3.00;2.80;;;16.60;1.00;;;;;;2612963;54;20425;-59
2024/02/17 07:28:48;;;;;;;3.03;2.73;;;16.60;1.00;;;;;;2611964;54;20160;-59
2024/02/17 07:31:16;;;;;;;2.60;2.40;;;16.60;1.00;;;;;;2612254;54;20238;-60
2024/02/17 07:33:46;;;;;;;2.57;2.37;;;16.60;1.00;;;;;;2613188;47;20528;-59
2024/02/17 07:36:13;;;;;;;2.93;2.70;;;16.60;1.00;;;;;;2612800;54;20399;-59
2024/02/17 07:38:39;;;;;;;3.27;2.63;;;16.60;1.00;;;;;;2612756;54;20437;-59
2024/02/17 07:41:05;;;;;;;2.63;2.23;;;16.60;1.00;;;;;;2613387;39;20608;-59
2024/02/17 07:43:30;;;;;;;4.60;2.90;;;16.60;1.00;;;;;;2612901;54;20498;-59
2024/02/17 07:45:56;;;;;;;2.80;2.60;;;16.60;1.00;;;;;;2612893;39;20876;-58
2024/02/17 07:48:22;;;;;;;2.80;2.57;;;16.60;1.00;;;;;;2612626;39;20564;-59
2024/02/17 07:50:47;;;;;;;3.03;2.83;;;16.60;1.00;;;;;;2613295;54;20165;-59
2024/02/17 07:53:13;;;;;;;2.60;2.40;;;16.60;1.00;;;;;;2612427;54;20177;-60
2024/02/17 07:55:38;;;;;;;2.80;2.60;;;16.60;1.00;;;;;;2612314;54;20150;-58
2024/02/17 07:58:06;;;;;;;3.00;2.70;;;16.60;1.00;;;;;;2612540;54;20163;-59
2024/02/17 08:00:32;;;;;;;3.10;2.80;;;16.60;1.00;;;;;;2612706;54;20154;-59
2024/02/17 08:02:58;;;;;;;3.30;3.00;;;16.60;1.00;;;;;;2612880;54;20526;-60
2024/02/17 08:05:23;;;;;;;2.53;2.30;;;16.60;1.00;;;;;;2612908;39;20943;-74
2024/02/17 08:07:49;;;;;;;5.80;2.90;;;16.60;1.00;;;;;;2613497;54;20268;-74
2024/02/17 08:10:15;;;;;;;2.63;2.43;;;16.60;1.00;;;;;;2613553;54;20152;-74
2024/02/17 08:12:40;;;;;;;2.83;2.43;;;16.60;1.00;;;;;;2613926;54;20798;-75
2024/02/17 08:15:07;;;;;;;4.37;3.43;;;16.60;1.00;;;;;;2614020;54;20200;-75
2024/02/17 08:17:35;;;;;;;2.80;2.60;;;16.60;1.00;;;;;;2613678;54;20427;-74
2024/02/17 08:20:02;;;;;;;3.00;2.77;;;16.60;1.00;;;;;;2614161;47;20406;-75
2024/02/17 08:22:28;;;;;;;2.63;2.43;;;16.60;1.00;;;;;;2613811;54;20479;-75
2024/02/17 08:24:53;;;;;;;2.73;2.53;;;16.60;1.00;;;;;;2614106;47;20431;-60
2024/02/17 08:27:20;;;;;;;2.70;2.50;;;16.60;1.00;;;;;;2613595;54;20190;-58
2024/02/17 08:29:45;;;;;;;3.60;3.30;;;16.60;1.00;;;;;;2612315;54;20157;-61
2024/02/17 08:32:11;;;;;;;2.77;2.57;;;16.60;1.00;;;;;;2613449;47;20410;-58
2024/02/17 08:34:37;;;;;;;2.67;2.47;;;16.60;1.00;;;;;;2613594;47;20167;-59
2024/02/17 08:37:03;;;;;;;2.40;2.20;;;16.60;1.00;;;;;;2613768;54;20159;-59
2024/02/17 08:39:28;;;;;;;3.13;2.63;;;16.70;1.00;;;;;;2613522;54;20160;-59
2024/02/17 08:41:55;;;;;;;3.60;3.30;;;16.70;1.00;;;;;;2613131;54;20498;-59
2024/02/17 08:44:21;;;;;;;2.67;2.07;;;16.70;1.00;;;;;;2614381;39;20583;-65
2024/02/17 08:46:46;;;;;;;3.23;2.93;;;16.60;1.00;;;;;;2613499;54;20399;-66
2024/02/17 08:49:12;;;;;;;3.37;2.80;;;16.60;1.00;;;;;;2613272;47;20190;-65
2024/02/17 08:51:38;;;;;;;3.17;2.90;;;16.60;1.00;;;;;;2612718;54;20863;-65
2024/02/17 08:54:03;;;;;;;4.03;2.63;;;16.60;1.00;;;;;;2613423;47;20963;-65
2024/02/17 08:56:29;;;;;;;2.80;2.60;;;16.60;1.00;;;;;;2613866;54;20166;-65
2024/02/17 08:58:54;;;;;;;3.23;2.93;;;16.70;1.00;;;;;;2612166;39;20729;-64
2024/02/17 09:01:20;;;;;;;3.47;3.17;;;16.60;1.00;;;;;;2612740;54;20802;-65
2024/02/17 09:03:46;;;;;;;3.90;3.50;;;16.60;1.00;;;;;;2613235;47;20347;-64
2024/02/17 09:06:12;;;;;;;3.47;2.97;;;16.60;1.00;;;;;;2612879;54;20164;-66
2024/02/17 09:08:38;;;;;;;3.83;2.87;;;16.70;1.00;;;;;;2612810;54;20219;-64
2024/02/17 09:11:04;;;;;;;3.80;2.73;;;16.70;1.00;;;;;;2613444;54;20154;-65
2024/02/17 09:13:29;;;;;;;3.80;3.10;;;16.70;1.00;;;;;;2612858;54;20413;-58
2024/02/17 09:15:55;;;;;;;3.87;3.47;;;16.70;1.00;;;;;;2613647;54;20173;-64
2024/02/17 09:18:23;;;;;;;5.57;3.30;;;16.70;1.00;;;;;;2613066;54;20206;-63
2024/02/17 09:20:50;;;;;;;6.10;2.90;;;16.70;1.00;;;;;;2613496;54;20714;-63
2024/02/17 09:23:15;;;;;;;3.93;3.00;;;16.70;1.00;;;;;;2613197;54;20435;-64
2024/02/17 09:25:41;;;;;;;3.63;3.33;;;16.70;1.00;;;;;;2613679;54;20515;-63
2024/02/17 09:28:07;;;;;;;4.20;3.40;;;16.70;1.00;;;;;;2613321;54;20178;-64
2024/02/17 09:30:34;;;;;;;4.20;3.60;;;16.70;1.00;;;;;;2613002;54;20722;-64
2024/02/17 09:33:01;;;;;;;4.97;3.13;;;16.70;1.00;;;;;;2612932;47;20238;-63
2024/02/17 09:35:27;;;;;;;3.80;3.50;;;16.70;1.00;;;;;;2613542;54;20424;-63
2024/02/17 09:37:52;;;;;;;3.30;3.00;;;16.70;1.00;;;;;;2613977;39;20500;-64
2024/02/17 09:40:20;;;;;;;3.13;2.70;;;16.70;1.00;;;;;;2613008;54;20168;-64
2024/02/17 09:42:47;;;;;;;19.53;4.10;;;16.70;1.00;;;;;;2613194;54;21166;-63
2024/02/17 09:45:13;;;;;;;3.10;2.80;;;16.70;1.00;;;;;;2612688;54;20403;-64
2024/02/17 09:47:43;;;;;;;4.60;3.17;;;16.70;1.00;;;;;;2613887;39;20823;-64
2024/02/17 09:50:11;;;;;;;3.43;3.13;;;16.60;1.00;;;;;;2613076;54;20408;-64
2024/02/17 09:52:37;;;;;;;3.83;2.97;;;16.70;1.00;;;;;;2613616;54;20432;-64
2024/02/17 09:55:04;;;;;;;3.80;2.97;;;16.70;1.00;;;;;;2613469;54;20420;-64
2024/02/17 09:57:30;;;;;;;3.43;3.13;;;16.70;1.00;;;;;;2613667;54;20456;-63
2024/02/17 09:59:56;;;;;;;3.93;3.63;;;16.70;1.00;;;;;;2612416;47;20440;-63
2024/02/17 10:02:22;;;;;;;3.80;3.20;;;16.70;1.00;;;;;;2611621;54;20160;-63
2024/02/17 10:04:52;;;;;;;3.90;3.60;;;16.70;1.00;;;;;;2612707;54;20183;-64
2024/02/17 10:07:18;;;;;;;3.20;2.90;;;16.70;1.00;;;;;;2613531;46;20430;-64
2024/02/17 10:09:45;;;;;;;3.80;3.50;;;16.70;1.00;;;;;;2612379;54;20475;-64
2024/02/17 10:12:13;;;;;;;3.93;3.53;;;16.70;1.00;;;;;;2613606;54;20616;-63
2024/02/17 10:14:39;;;;;;;4.00;3.60;;;16.70;1.00;;;;;;2613206;54;20496;-64
2024/02/17 10:17:08;;;;;;;3.50;3.20;;;16.70;1.00;;;;;;2613551;54;20549;-64
2024/02/17 10:19:34;;;;;;;3.80;3.50;;;16.70;1.00;;;;;;2612525;54;20439;-64
2024/02/17 10:21:59;;;;;;;5.70;3.77;;;16.70;1.00;;;;;;2613401;54;20425;-63
2024/02/17 10:24:25;;;;;;;4.10;3.70;;;16.70;1.00;;;;;;2613725;54;21134;-65
2024/02/17 10:26:52;;;;;;;4.17;3.87;;;16.70;1.00;;;;;;2613625;54;20225;-65
2024/02/17 10:29:17;;;;;;;3.83;3.50;;;16.70;1.00;;;;;;2612381;54;20155;-65
2024/02/17 10:31:48;;;;;;;5.43;4.17;;;16.70;1.00;;;;;;2613507;54;20594;-64
2024/02/17 10:34:15;;;;;;;4.50;4.10;;;16.70;1.00;;;;;;2613297;54;20159;-66
2024/02/17 10:36:42;;;;;;;4.97;4.47;;;16.70;1.00;;;;;;2613388;54;20400;-66
2024/02/17 10:39:08;;;;;;;4.40;4.03;;;16.70;1.00;;;;;;2612565;47;20427;-65
2024/02/17 10:41:35;;;;;;;4.07;3.77;;;16.70;1.00;;;;;;2613096;54;20407;-65
2024/02/17 10:44:01;;;;;;;5.30;4.80;;;16.70;1.00;;;;;;2612897;54;20478;-59
2024/02/17 10:46:28;;;;;;;5.53;5.00;;;16.70;1.00;;;;;;2611849;54;21019;-58
2024/02/17 10:49:02;;;;;;;4.23;3.93;;;16.70;1.00;;;;;;2612975;54;20451;-58
2024/02/17 10:51:29;;;;;;;5.27;4.70;;;16.70;1.00;;;;;;2613734;54;20499;-58
2024/02/17 10:53:59;;;;;;;5.17;4.67;;;16.70;1.00;;;;;;2612362;54;20462;-58
2024/02/17 10:56:25;;;;;;;4.80;4.40;;;16.70;1.00;;;;;;2613650;39;20815;-59
2024/02/17 10:58:56;;;;;;;4.70;4.30;;;16.70;1.00;;;;;;2612332;47;20435;-59
2024/02/17 11:01:29;;;;;;;5.50;5.00;;;16.70;1.00;;;;;;2612329;39;20844;-60
2024/02/17 11:03:57;;;;;;;6.33;5.47;;;16.70;1.00;;;;;;2613676;39;20774;-59
2024/02/17 11:06:25;;;;;;;5.47;4.93;;;16.70;1.00;;;;;;2612659;47;20428;-60
2024/02/17 11:08:51;;;;;;;5.43;4.93;;;16.70;1.00;;;;;;2612971;54;20403;-60
2024/02/17 11:11:30;;;;;;;4.13;3.83;;;16.70;1.00;;;;;;2612522;54;21121;-58
2024/02/17 11:13:57;;;;;;;4.83;4.43;;;16.70;1.00;;;;;;2612467;54;20428;-59
2024/02/17 11:16:24;;;;;;;4.80;4.40;;;16.70;1.00;;;;;;2613374;47;20408;-59
2024/02/17 11:18:53;;;;;;;5.07;4.57;;;16.70;1.00;;;;;;2613256;54;20405;-59
2024/02/17 11:21:36;;;;;;;5.20;4.70;;;16.70;1.00;;;;;;2612783;54;20421;-60
2024/02/17 11:24:02;;;;;;;5.67;5.13;;;16.70;1.00;;;;;;2613539;39;20855;-61
2024/02/17 11:26:31;;;;;;;4.90;4.50;;;16.70;1.00;;;;;;2612595;54;20410;-59
2024/02/17 11:28:56;;;;;;;6.13;5.30;;;16.70;1.00;;;;;;2612835;54;20466;-59
2024/02/17 11:31:30;;;;;;;6.00;5.23;;;16.70;1.00;;;;;;2612973;54;20424;-58
2024/02/17 11:34:03;;;;;;;5.67;4.90;;;16.70;1.00;;;;;;2613035;47;20159;-58
2024/02/17 11:36:33;;;;;;;5.23;4.77;;;16.70;1.00;;;;;;2613517;47;20418;-59
2024/02/17 11:39:00;;;;;;;5.30;4.80;;;16.70;1.00;;;;;;2613334;54;20511;-58
2024/02/17 11:41:27;;;;;;;5.93;5.33;;;16.70;1.00;;;;;;2612056;50;20415;-58
2024/02/17 11:43:54;;;;;;;5.50;5.00;;;16.70;1.00;;;;;;2613079;54;20403;-59
2024/02/17 11:46:20;;;;;;;6.00;5.50;;;16.70;1.00;;;;;;2613387;54;20427;-58
2024/02/17 11:48:46;;;;;;;5.60;5.10;;;16.70;1.00;;;;;;2612623;47;20491;-58
2024/02/17 11:51:22;;;;;;;7.30;5.47;;;16.70;1.00;;;;;;2612676;47;20162;-59
2024/02/17 11:53:48;;;;;;;7.20;5.70;;;16.70;1.00;;;;;;2612521;39;20772;-64
2024/02/17 11:56:15;;;;;;;6.30;5.23;;;16.70;1.00;;;;;;2611780;47;20428;-64
2024/02/17 11:58:42;;;;;;;5.40;4.90;;;16.70;1.00;;;;;;2613102;54;20431;-64
2024/02/17 12:01:08;;;;;;;7.00;6.40;;;16.70;1.00;;;;;;2611511;54;20400;-64
2024/02/17 12:03:34;;;;;;;5.40;5.00;;;16.70;1.00;;;;;;2613022;54;20441;-63
2024/02/17 12:06:00;;;;;;;6.47;5.93;;;16.70;1.00;;;;;;2612340;54;20205;-64
2024/02/17 12:08:32;;;;;;;6.53;5.77;;;16.70;1.00;;;;;;2612582;54;20436;-63
2024/02/17 12:10:58;;;;;;;6.17;5.47;;;16.70;1.00;;;;;;2612916;47;20412;-63
2024/02/17 12:13:25;;;;;;;5.73;5.20;;;16.70;1.00;;;;;;2612314;47;20434;-64
2024/02/17 12:15:51;;;;;;;8.57;6.67;;;16.70;1.00;;;;;;2613141;54;20389;-64
2024/02/17 12:18:21;;;;;;;5.83;5.30;;;16.70;1.00;;;;;;2612691;47;20427;-64
2024/02/17 12:20:48;;;;;;;6.00;5.60;;;16.70;1.00;;;;;;2612956;54;20449;-64
2024/02/17 12:23:14;;;;;;;8.97;6.60;;;16.70;1.00;;;;;;2611652;54;20916;-64
2024/02/17 12:25:40;;;;;;;6.70;6.20;;;16.70;1.00;;;;;;2612870;54;20407;-64
2024/02/17 12:28:07;;;;;;;6.53;5.93;;;16.70;1.00;;;;;;2612759;39;20834;-63
2024/02/17 12:30:45;;;;;;;6.47;5.97;;;16.70;1.00;;;;;;2613078;54;20392;-63
2024/02/17 12:33:11;;;;;;;6.40;5.80;;;16.70;1.00;;;;;;2612843;54;20422;-63
2024/02/17 12:35:42;;;;;;;6.27;5.67;;;16.70;1.00;;;;;;2612336;54;20392;-64
2024/02/17 12:38:09;;;;;;;6.60;6.00;;;16.70;1.00;;;;;;2612490;54;20177;-64
2024/02/17 12:40:35;;;;;;;6.80;6.20;;;16.70;1.00;;;;;;2612957;39;20831;-64
2024/02/17 12:43:01;;;;;;;7.20;6.50;;;16.70;1.00;;;;;;2612577;54;20483;-64
2024/02/17 12:45:32;;;;;;;6.77;6.23;;;16.70;1.00;;;;;;2612464;47;20168;-61
2024/02/17 12:48:01;;;;;;;6.93;6.30;;;16.70;1.00;;;;;;2612741;47;20474;-62
2024/02/17 12:50:27;;;;;;;7.73;7.03;;;16.70;1.00;;;;;;2612822;54;20400;-61
2024/02/17 12:53:06;;;;;;;6.57;5.97;;;16.70;1.00;;;;;;2612697;54;20416;-61
2024/02/17 12:55:31;;;;;;;6.43;5.93;;;16.70;1.00;;;;;;2613048;39;20818;-61
2024/02/17 12:57:57;;;;;;;6.37;5.87;;;16.70;1.00;;;;;;2613016;39;20830;-60